createdAt,value
2023-06-16T00:01:16.615Z,7.80
2023-06-16T00:03:51.277Z,9.20
2023-06-16T00:06:21.292Z,8.20
2023-06-16T00:08:55.654Z,8.50
2023-06-16T00:11:24.066Z,9.90
2023-06-16T00:13:52.348Z,8.20
2023-06-16T00:16:21.163Z,8.40
2023-06-16T00:18:53.797Z,8.40
2023-06-16T00:21:30.903Z,8.90
2023-06-16T00:23:58.990Z,8.80
2023-06-16T00:26:27.831Z,8.20
2023-06-16T00:28:55.929Z,8.70
2023-06-16T00:31:23.797Z,8.10
2023-06-16T00:33:51.617Z,8.90
2023-06-16T00:36:19.394Z,8.40
2023-06-16T00:38:47.311Z,8.20
2023-06-16T00:41:15.108Z,8.20
2023-06-16T00:43:43.695Z,7.60
2023-06-16T00:46:14.403Z,7.80
2023-06-16T00:48:42.268Z,7.60
2023-06-16T00:51:12.306Z,8.20
2023-06-16T00:53:40.889Z,10.50
2023-06-16T00:56:08.984Z,8.60
2023-06-16T00:58:37.526Z,8.40
2023-06-16T01:01:06.168Z,8.80
2023-06-16T01:03:34.096Z,7.50
2023-06-16T01:06:08.298Z,7.90
2023-06-16T01:08:42.447Z,7.70
2023-06-16T01:11:53.188Z,7.70
2023-06-16T01:14:39.680Z,8.80
2023-06-16T01:17:09.190Z,8.40
2023-06-16T01:19:44.136Z,7.30
2023-06-16T01:22:20.267Z,7.70
2023-06-16T01:24:48.921Z,8.00
2023-06-16T01:27:18.606Z,8.80
2023-06-16T01:29:47.789Z,8.10
2023-06-16T01:32:17.706Z,9.40
2023-06-16T01:34:46.668Z,7.70
2023-06-16T01:37:14.744Z,8.80
2023-06-16T01:39:45.007Z,7.90
2023-06-16T01:42:14.151Z,8.80
2023-06-16T01:44:43.347Z,7.80
2023-06-16T01:47:11.648Z,9.40
2023-06-16T01:49:39.999Z,9.60
2023-06-16T01:52:08.408Z,8.60
2023-06-16T01:54:36.255Z,9.20
2023-06-16T01:57:06.015Z,9.10
2023-06-16T01:59:34.864Z,9.40
2023-06-16T02:02:11.915Z,7.80
2023-06-16T02:04:42.078Z,8.20
2023-06-16T02:07:16.093Z,9.40
2023-06-16T02:09:44.776Z,8.50
2023-06-16T02:12:13.775Z,7.90
2023-06-16T02:14:41.723Z,8.70
2023-06-16T02:17:09.886Z,9.20
2023-06-16T02:19:39.840Z,8.40
2023-06-16T02:22:08.013Z,10.10
2023-06-16T02:24:36.741Z,9.80
2023-06-16T02:27:05.607Z,7.90
2023-06-16T02:29:33.543Z,8.20
2023-06-16T02:32:01.492Z,8.00
2023-06-16T02:34:29.362Z,7.70
2023-06-16T02:36:57.842Z,8.50
2023-06-16T02:39:25.929Z,8.20
2023-06-16T02:41:53.806Z,8.80
2023-06-16T02:44:21.594Z,8.70
2023-06-16T02:46:49.578Z,7.70
2023-06-16T02:49:18.247Z,8.40
2023-06-16T02:51:46.841Z,8.60
2023-06-16T02:54:14.817Z,8.50
2023-06-16T02:56:42.870Z,7.40
2023-06-16T02:59:11.799Z,7.70
2023-06-16T03:01:40.180Z,7.90
2023-06-16T03:04:08.039Z,8.30
2023-06-16T03:06:36.730Z,8.90
2023-06-16T03:09:04.574Z,7.90
2023-06-16T03:11:33.483Z,9.00
2023-06-16T03:14:01.840Z,9.50
2023-06-16T03:16:29.729Z,8.90
2023-06-16T03:18:57.579Z,9.20
2023-06-16T03:21:26.443Z,9.40
2023-06-16T03:23:54.765Z,9.30
2023-06-16T03:26:23.674Z,7.60
2023-06-16T03:28:51.736Z,9.20
2023-06-16T03:31:20.796Z,8.40
2023-06-16T03:33:50.994Z,9.40
2023-06-16T03:36:19.461Z,9.40
2023-06-16T03:38:47.345Z,9.50
2023-06-16T03:41:15.031Z,8.80
2023-06-16T03:43:43.021Z,8.60
2023-06-16T03:46:11.014Z,8.70
2023-06-16T03:48:39.093Z,8.40
2023-06-16T03:51:07.025Z,9.00
2023-06-16T03:53:34.828Z,8.80
2023-06-16T03:56:02.965Z,8.50
2023-06-16T03:58:31.553Z,8.80
2023-06-16T04:00:59.514Z,8.00
2023-06-16T04:03:27.598Z,8.40
2023-06-16T04:05:56.016Z,9.50
2023-06-16T04:08:24.043Z,8.80
2023-06-16T04:10:53.826Z,9.30
2023-06-16T04:13:21.669Z,9.50
2023-06-16T04:15:49.599Z,8.50
2023-06-16T04:18:17.697Z,8.60
2023-06-16T04:20:45.672Z,9.80
2023-06-16T04:23:13.608Z,8.80
2023-06-16T04:25:41.743Z,8.40
2023-06-16T04:28:15.949Z,7.90
2023-06-16T04:30:44.080Z,10.20
2023-06-16T04:33:11.830Z,8.80
2023-06-16T04:35:40.420Z,8.80
2023-06-16T04:38:08.414Z,8.80
2023-06-16T04:40:37.982Z,8.90
2023-06-16T04:43:05.812Z,8.50
2023-06-16T04:45:33.705Z,9.30
2023-06-16T04:48:01.805Z,9.80
2023-06-16T04:50:29.938Z,9.00
2023-06-16T04:52:57.847Z,9.80
2023-06-16T04:55:27.248Z,9.00
2023-06-16T04:57:55.123Z,9.20
2023-06-16T05:00:29.103Z,8.30
2023-06-16T05:02:58.000Z,9.20
2023-06-16T05:05:25.902Z,8.30
2023-06-16T05:07:53.713Z,9.60
2023-06-16T05:10:22.194Z,8.90
2023-06-16T05:12:50.083Z,10.00
2023-06-16T05:15:17.976Z,9.40
2023-06-16T05:17:46.039Z,9.40
2023-06-16T05:20:13.901Z,9.30
2023-06-16T05:22:41.898Z,9.90
2023-06-16T05:25:10.136Z,9.50
2023-06-16T05:27:37.978Z,8.60
2023-06-16T05:30:06.505Z,9.60
2023-06-16T05:32:34.436Z,9.20
2023-06-16T05:35:02.619Z,8.60
2023-06-16T05:37:30.595Z,8.70
2023-06-16T05:39:58.395Z,7.80
2023-06-16T05:42:27.318Z,8.40
2023-06-16T05:44:55.819Z,7.80
2023-06-16T05:47:23.726Z,7.60
2023-06-16T05:49:51.644Z,7.90
2023-06-16T05:52:19.373Z,7.90
2023-06-16T05:54:47.293Z,7.40
2023-06-16T05:57:15.101Z,6.80
2023-06-16T05:59:42.847Z,7.30
2023-06-16T06:02:13.469Z,7.20
2023-06-16T06:04:41.922Z,6.30
2023-06-16T06:07:10.189Z,6.40
2023-06-16T06:09:38.168Z,7.90
2023-06-16T06:12:07.103Z,6.30
2023-06-16T06:14:34.838Z,7.10
2023-06-16T06:17:02.827Z,6.50
2023-06-16T06:19:30.944Z,6.80
2023-06-16T06:21:58.959Z,6.90
2023-06-16T06:24:26.711Z,7.00
2023-06-16T06:26:54.968Z,7.40
2023-06-16T06:29:22.736Z,8.70
2023-06-16T06:31:50.869Z,7.50
2023-06-16T06:34:18.870Z,7.40
2023-06-16T06:36:49.080Z,7.80
2023-06-16T06:39:17.169Z,6.40
2023-06-16T06:41:45.131Z,7.40
2023-06-16T06:44:12.889Z,7.00
2023-06-16T06:46:42.137Z,6.40
2023-06-16T06:49:10.320Z,7.00
2023-06-16T06:51:38.534Z,6.50
2023-06-16T06:54:08.236Z,6.70
2023-06-16T06:56:36.247Z,7.10
2023-06-16T06:59:04.052Z,6.30
2023-06-16T07:01:32.200Z,6.50
2023-06-16T07:04:00.106Z,6.00
2023-06-16T07:06:28.176Z,6.40
2023-06-16T07:08:59.128Z,6.50
2023-06-16T07:11:27.334Z,6.10
2023-06-16T07:13:56.055Z,6.60
2023-06-16T07:16:23.947Z,6.50
2023-06-16T07:18:52.168Z,6.10
2023-06-16T07:21:20.152Z,7.10
2023-06-16T07:23:48.033Z,6.30
2023-06-16T07:26:16.191Z,8.50
2023-06-16T07:28:44.149Z,6.10
2023-06-16T07:31:12.351Z,6.80
2023-06-16T07:33:40.222Z,6.60
2023-06-16T07:36:08.452Z,6.80
2023-06-16T07:38:36.396Z,6.50
2023-06-16T07:41:06.029Z,6.50
2023-06-16T07:43:33.891Z,6.10
2023-06-16T07:46:02.154Z,6.70
2023-06-16T07:48:29.902Z,6.10
2023-06-16T07:50:57.779Z,6.60
2023-06-16T07:53:25.960Z,6.30
2023-06-16T07:55:53.967Z,6.00
2023-06-16T07:58:23.735Z,5.80
2023-06-16T08:00:53.303Z,6.70
2023-06-16T08:03:21.591Z,6.30
2023-06-16T08:05:49.524Z,6.40
2023-06-16T08:08:18.955Z,6.30
2023-06-16T08:10:46.795Z,6.00
2023-06-16T08:13:14.869Z,7.70
2023-06-16T08:15:42.689Z,6.50
2023-06-16T08:18:11.059Z,7.40
2023-06-16T08:20:38.926Z,6.40
2023-06-16T08:23:06.859Z,6.60
2023-06-16T08:25:34.749Z,6.90
2023-06-16T08:28:04.579Z,7.60
2023-06-16T08:30:32.564Z,6.50
2023-06-16T08:33:00.659Z,7.70
2023-06-16T08:35:29.650Z,6.20
2023-06-16T08:37:57.827Z,6.70
2023-06-16T08:40:25.683Z,6.50
2023-06-16T08:42:55.744Z,6.40
2023-06-16T08:45:24.918Z,7.40
2023-06-16T08:47:52.938Z,6.60
2023-06-16T08:50:23.464Z,8.60
2023-06-16T08:52:54.447Z,6.90
2023-06-16T08:55:24.153Z,7.30
2023-06-16T08:57:54.028Z,7.00
2023-06-16T09:00:23.597Z,6.50
2023-06-16T09:02:57.219Z,6.10
2023-06-16T09:05:27.218Z,6.10
2023-06-16T09:07:55.291Z,6.40
2023-06-16T09:10:23.478Z,6.60
2023-06-16T09:12:52.653Z,6.40
2023-06-16T09:15:21.359Z,5.50
2023-06-16T09:17:50.171Z,6.10
2023-06-16T09:20:19.406Z,6.30
2023-06-16T09:22:51.288Z,5.80
2023-06-16T09:25:20.288Z,4.80
2023-06-16T09:27:50.478Z,5.90
2023-06-16T09:30:20.460Z,4.60
2023-06-16T09:32:50.469Z,5.10
2023-06-16T09:35:22.136Z,5.00
2023-06-16T09:37:51.584Z,5.20
2023-06-16T09:40:21.549Z,5.60
2023-06-16T09:42:51.608Z,5.30
2023-06-16T09:45:21.875Z,5.70
2023-06-16T09:47:50.697Z,5.00
2023-06-16T09:50:20.457Z,4.20
2023-06-16T09:52:49.407Z,4.90
2023-06-16T09:55:17.279Z,4.50
2023-06-16T09:57:47.119Z,4.10
2023-06-16T10:00:19.778Z,3.80
2023-06-16T10:02:52.460Z,4.20
2023-06-16T10:05:22.009Z,4.40
2023-06-16T10:07:52.124Z,4.50
2023-06-16T10:10:27.233Z,4.60
2023-06-16T10:12:56.406Z,4.30
2023-06-16T10:15:28.651Z,4.60
2023-06-16T10:18:07.943Z,4.10
2023-06-16T10:20:39.068Z,3.50
2023-06-16T10:23:07.490Z,4.80
2023-06-16T10:25:36.149Z,4.50
2023-06-16T10:28:09.415Z,4.20
2023-06-16T10:30:37.915Z,4.30
2023-06-16T10:33:23.439Z,4.40
2023-06-16T10:36:16.024Z,4.20
2023-06-16T10:38:56.309Z,4.30
2023-06-16T10:41:24.836Z,4.40
2023-06-16T10:43:52.720Z,4.70
2023-06-16T10:46:22.674Z,4.30
2023-06-16T10:49:05.624Z,4.10
2023-06-16T10:51:50.367Z,3.80
2023-06-16T10:54:34.491Z,4.70
2023-06-16T10:57:13.812Z,4.60
2023-06-16T11:00:12.916Z,4.20
2023-06-16T11:02:51.549Z,4.10
2023-06-16T11:05:24.061Z,4.40
2023-06-16T11:07:59.460Z,3.80
2023-06-16T11:10:27.398Z,3.40
2023-06-16T11:12:55.323Z,4.00
2023-06-16T11:15:24.751Z,3.40
2023-06-16T11:17:53.355Z,4.40
2023-06-16T11:20:21.902Z,3.90
2023-06-16T11:22:52.231Z,4.00
2023-06-16T11:25:20.252Z,4.30
2023-06-16T11:27:48.206Z,4.60
2023-06-16T11:30:15.985Z,4.20
2023-06-16T11:32:44.253Z,4.40
2023-06-16T11:35:12.445Z,3.90
2023-06-16T11:37:48.892Z,4.90
2023-06-16T11:40:30.172Z,3.70
2023-06-16T11:42:59.411Z,4.40
2023-06-16T11:45:28.495Z,3.90
2023-06-16T11:47:57.748Z,4.70
2023-06-16T11:50:26.154Z,4.40
2023-06-16T11:52:54.405Z,3.90
2023-06-16T11:55:22.950Z,3.20
2023-06-16T11:57:50.850Z,3.30
2023-06-16T12:00:20.068Z,3.20
2023-06-16T12:02:50.165Z,3.90
2023-06-16T12:05:23.877Z,3.30
2023-06-16T12:07:51.894Z,3.90
2023-06-16T12:10:20.784Z,3.40
2023-06-16T12:12:49.021Z,3.50
2023-06-16T12:15:18.932Z,4.10
2023-06-16T12:17:48.765Z,3.70
2023-06-16T12:20:18.871Z,4.00
2023-06-16T12:22:48.425Z,4.50
2023-06-16T12:25:17.872Z,4.30
2023-06-16T12:27:50.975Z,3.80
2023-06-16T12:30:20.503Z,3.80
2023-06-16T12:32:48.930Z,4.50
2023-06-16T12:35:25.712Z,4.40
2023-06-16T12:37:58.372Z,4.10
2023-06-16T12:40:30.163Z,4.60
2023-06-16T12:43:18.234Z,4.60
2023-06-16T12:45:46.200Z,4.80
2023-06-16T12:48:14.339Z,3.70
2023-06-16T12:50:42.367Z,4.00
2023-06-16T12:53:10.175Z,4.60
2023-06-16T12:55:38.160Z,4.40
2023-06-16T12:58:06.387Z,4.30
2023-06-16T13:00:35.100Z,4.60
2023-06-16T13:03:04.057Z,4.00
2023-06-16T13:05:32.117Z,4.60
2023-06-16T13:08:00.053Z,4.30
2023-06-16T13:10:28.088Z,4.10
2023-06-16T13:12:55.883Z,4.50
2023-06-16T13:15:24.007Z,4.20
2023-06-16T13:17:51.760Z,4.40
2023-06-16T13:20:19.840Z,5.00
2023-06-16T13:22:48.179Z,4.80
2023-06-16T13:25:16.185Z,4.20
2023-06-16T13:27:43.925Z,4.10
2023-06-16T13:30:12.338Z,5.00
2023-06-16T13:32:40.567Z,4.60
2023-06-16T13:35:09.095Z,4.70
2023-06-16T13:37:37.213Z,4.80
2023-06-16T13:40:05.698Z,4.50
2023-06-16T13:42:33.656Z,4.40
2023-06-16T13:45:01.920Z,4.70
2023-06-16T13:47:30.136Z,4.50
2023-06-16T13:49:58.079Z,5.30
2023-06-16T13:52:26.886Z,4.90
2023-06-16T13:54:54.750Z,4.40
2023-06-16T13:57:22.727Z,4.70
2023-06-16T13:59:50.748Z,5.30
2023-06-16T14:02:18.731Z,4.10
2023-06-16T14:04:46.467Z,4.40
2023-06-16T14:07:14.785Z,4.90
2023-06-16T14:09:42.727Z,4.60
2023-06-16T14:12:10.990Z,4.90
2023-06-16T14:14:38.932Z,4.80
2023-06-16T14:17:06.869Z,4.20
2023-06-16T14:19:35.781Z,4.60
2023-06-16T14:22:04.700Z,4.70
2023-06-16T14:24:32.846Z,4.40
2023-06-16T14:27:00.942Z,4.50
2023-06-16T14:29:28.772Z,4.70
2023-06-16T14:31:56.858Z,4.10
2023-06-16T14:34:28.231Z,5.50
2023-06-16T14:36:56.883Z,4.20
2023-06-16T14:39:24.800Z,4.40
2023-06-16T14:41:52.906Z,4.40
2023-06-16T14:44:21.374Z,4.40
2023-06-16T14:46:49.285Z,4.20
2023-06-16T14:49:17.102Z,4.20
2023-06-16T14:51:45.804Z,4.60
2023-06-16T14:54:13.703Z,3.80
2023-06-16T14:56:41.666Z,4.20
2023-06-16T14:59:09.559Z,4.40
2023-06-16T15:01:37.510Z,4.60
2023-06-16T15:04:05.564Z,4.70
2023-06-16T15:06:33.769Z,5.10
2023-06-16T15:09:01.781Z,4.40
2023-06-16T15:11:29.849Z,4.80
2023-06-16T15:14:02.105Z,4.10
2023-06-16T15:16:30.595Z,4.30
2023-06-16T15:18:59.207Z,4.40
2023-06-16T15:21:27.044Z,3.80
2023-06-16T15:23:55.945Z,4.70
2023-06-16T15:26:23.818Z,4.70
2023-06-16T15:28:51.973Z,4.30
2023-06-16T15:31:20.017Z,4.80
2023-06-16T15:33:47.788Z,4.10
2023-06-16T15:36:15.877Z,4.10
2023-06-16T15:38:43.938Z,5.00
2023-06-16T15:41:11.789Z,3.40
2023-06-16T15:43:39.593Z,4.10
2023-06-16T15:46:07.900Z,5.20
2023-06-16T15:48:35.936Z,4.00
2023-06-16T15:51:03.996Z,5.10
2023-06-16T15:53:31.772Z,4.90
2023-06-16T15:56:00.174Z,4.40
2023-06-16T15:58:28.089Z,4.30
2023-06-16T16:00:55.977Z,4.60
2023-06-16T16:03:23.974Z,4.60
2023-06-16T16:05:52.338Z,4.90
2023-06-16T16:08:20.436Z,4.70
2023-06-16T16:10:49.206Z,4.60
2023-06-16T16:13:17.261Z,5.60
2023-06-16T16:15:45.287Z,4.70
2023-06-16T16:18:13.105Z,4.30
2023-06-16T16:20:41.164Z,4.40
2023-06-16T16:23:09.010Z,4.70
2023-06-16T16:25:36.973Z,4.20
2023-06-16T16:28:05.184Z,4.50
2023-06-16T16:30:33.333Z,4.70
2023-06-16T16:33:01.114Z,4.50
2023-06-16T16:35:29.254Z,4.40
2023-06-16T16:37:57.151Z,4.20
2023-06-16T16:40:26.472Z,4.60
2023-06-16T16:42:54.532Z,4.00
2023-06-16T16:45:23.570Z,4.40
2023-06-16T16:47:51.615Z,4.40
2023-06-16T16:50:19.746Z,4.40
2023-06-16T16:52:48.045Z,4.80
2023-06-16T16:55:30.509Z,4.00
2023-06-16T16:58:03.676Z,4.70
2023-06-16T17:00:31.896Z,4.40
2023-06-16T17:03:00.037Z,3.90
2023-06-16T17:05:28.028Z,4.10
2023-06-16T17:07:55.831Z,4.40
2023-06-16T17:10:24.414Z,4.10
2023-06-16T17:12:52.556Z,4.70
2023-06-16T17:15:20.510Z,4.90
2023-06-16T17:17:48.478Z,4.30
2023-06-16T17:20:16.365Z,3.90
2023-06-16T17:22:44.103Z,4.00
2023-06-16T17:25:12.042Z,4.60
2023-06-16T17:27:57.569Z,4.80
2023-06-16T17:30:28.893Z,4.60
2023-06-16T17:32:59.983Z,4.50
2023-06-16T17:35:30.864Z,5.00
2023-06-16T17:37:59.926Z,4.20
2023-06-16T17:40:31.879Z,4.30
2023-06-16T17:43:01.750Z,4.20
2023-06-16T17:45:29.860Z,4.70
2023-06-16T17:47:57.634Z,4.80
2023-06-16T17:50:28.253Z,5.40
2023-06-16T17:52:56.936Z,6.20
2023-06-16T17:55:24.875Z,5.90
2023-06-16T17:57:53.005Z,5.20
2023-06-16T18:00:21.260Z,5.50
2023-06-16T18:02:49.784Z,5.10
2023-06-16T18:05:17.780Z,5.40
2023-06-16T18:07:45.610Z,5.20
2023-06-16T18:10:13.886Z,6.00
2023-06-16T18:12:41.674Z,5.30
2023-06-16T18:15:09.978Z,5.80
2023-06-16T18:17:37.820Z,5.20
2023-06-16T18:20:07.077Z,5.50
2023-06-16T18:22:34.910Z,5.50
2023-06-16T18:25:02.743Z,4.90
2023-06-16T18:27:33.163Z,6.40
2023-06-16T18:30:02.572Z,5.30
2023-06-16T18:32:30.419Z,5.20
2023-06-16T18:34:58.377Z,5.60
2023-06-16T18:37:26.520Z,5.70
2023-06-16T18:39:54.310Z,5.30
2023-06-16T18:42:22.125Z,5.20
2023-06-16T18:44:50.048Z,5.60
2023-06-16T18:47:17.772Z,6.90
2023-06-16T18:49:46.162Z,5.40
2023-06-16T18:52:14.099Z,5.90
2023-06-16T18:54:42.557Z,5.50
2023-06-16T18:57:12.540Z,5.40
2023-06-16T18:59:48.804Z,5.30
2023-06-16T19:02:19.184Z,5.00
2023-06-16T19:04:47.653Z,5.10
2023-06-16T19:07:15.999Z,6.10
2023-06-16T19:09:43.994Z,6.30
2023-06-16T19:12:12.908Z,6.00
2023-06-16T19:14:43.102Z,5.90
2023-06-16T19:17:15.104Z,6.10
2023-06-16T19:19:45.759Z,6.10
2023-06-16T19:22:14.111Z,5.30
2023-06-16T19:24:41.939Z,6.10
2023-06-16T19:27:09.840Z,5.60
2023-06-16T19:29:37.771Z,6.50
2023-06-16T19:32:06.116Z,6.30
2023-06-16T19:34:35.346Z,6.70
2023-06-16T19:37:03.300Z,5.40
2023-06-16T19:39:31.114Z,5.90
2023-06-16T19:41:59.051Z,6.70
2023-06-16T19:44:27.022Z,5.30
2023-06-16T19:46:55.034Z,6.40
2023-06-16T19:49:22.910Z,5.90
2023-06-16T19:51:52.899Z,6.10
2023-06-16T19:54:22.110Z,6.40
2023-06-16T19:56:50.157Z,6.70
2023-06-16T19:59:18.164Z,6.30
2023-06-16T20:01:45.994Z,6.20
2023-06-16T20:04:13.892Z,6.40
2023-06-16T20:06:42.273Z,5.60
2023-06-16T20:09:10.211Z,6.40
2023-06-16T20:11:37.995Z,6.10
2023-06-16T20:14:05.926Z,6.40
2023-06-16T20:16:33.889Z,6.00
2023-06-16T20:19:02.192Z,6.50
2023-06-16T20:21:30.228Z,6.60
2023-06-16T20:23:58.088Z,6.50
2023-06-16T20:26:26.281Z,6.30
2023-06-16T20:28:54.344Z,6.30
2023-06-16T20:31:22.251Z,6.90
2023-06-16T20:33:50.340Z,6.70
2023-06-16T20:36:18.342Z,6.60
2023-06-16T20:38:46.370Z,6.60
2023-06-16T20:41:17.035Z,6.60
2023-06-16T20:43:45.911Z,6.00
2023-06-16T20:46:13.929Z,8.70
2023-06-16T20:48:44.889Z,7.50
2023-06-16T20:51:12.831Z,7.20
2023-06-16T20:53:41.206Z,6.70
2023-06-16T20:56:09.036Z,7.70
2023-06-16T20:58:37.563Z,6.70
2023-06-16T21:01:05.952Z,6.70
2023-06-16T21:03:33.997Z,6.40
2023-06-16T21:06:02.021Z,7.90
2023-06-16T21:08:33.469Z,7.80
2023-06-16T21:11:01.447Z,7.80
2023-06-16T21:13:29.756Z,8.30
2023-06-16T21:16:03.810Z,8.60
2023-06-16T21:18:32.785Z,12.80
2023-06-16T21:21:00.898Z,16.50
2023-06-16T21:23:28.803Z,16.30
2023-06-16T21:25:56.829Z,16.40
2023-06-16T21:28:24.780Z,17.30
2023-06-16T21:30:52.794Z,18.10
2023-06-16T21:33:20.726Z,16.70
2023-06-16T21:35:48.764Z,17.10
2023-06-16T21:38:20.652Z,17.10
2023-06-16T21:40:48.524Z,15.30
2023-06-16T21:43:16.971Z,16.30
2023-06-16T21:45:45.179Z,16.60
2023-06-16T21:48:12.942Z,16.90
2023-06-16T21:50:41.608Z,16.10
2023-06-16T21:53:09.490Z,15.70
2023-06-16T21:55:37.958Z,15.90
2023-06-16T21:58:06.676Z,15.50
2023-06-16T22:00:35.419Z,15.50
2023-06-16T22:03:03.471Z,14.70
2023-06-16T22:05:31.734Z,15.80
2023-06-16T22:08:00.466Z,17.10
2023-06-16T22:10:28.336Z,17.40
2023-06-16T22:12:56.179Z,17.80
2023-06-16T22:15:24.589Z,17.70
2023-06-16T22:17:53.760Z,19.80
2023-06-16T22:20:21.905Z,18.30
2023-06-16T22:22:50.108Z,18.90
2023-06-16T22:25:18.078Z,17.10
2023-06-16T22:27:48.232Z,18.00
2023-06-16T22:30:16.176Z,15.30
2023-06-16T22:32:44.187Z,16.30
2023-06-16T22:35:11.999Z,14.60
2023-06-16T22:37:39.997Z,16.00
2023-06-16T22:40:08.760Z,16.50
2023-06-16T22:42:36.779Z,14.50
2023-06-16T22:45:05.021Z,15.60
2023-06-16T22:47:32.864Z,14.70
2023-06-16T22:50:00.760Z,15.60
2023-06-16T22:52:28.575Z,13.60
2023-06-16T22:54:56.549Z,14.50
2023-06-16T22:57:24.289Z,14.50
2023-06-16T22:59:52.056Z,15.20
2023-06-16T23:02:19.907Z,15.60
2023-06-16T23:04:47.966Z,14.40
2023-06-16T23:07:15.897Z,14.00
2023-06-16T23:09:43.751Z,14.30
2023-06-16T23:12:12.734Z,13.00
2023-06-16T23:14:40.620Z,12.30
2023-06-16T23:17:08.463Z,14.10
2023-06-16T23:19:37.867Z,12.60
2023-06-16T23:22:10.681Z,13.20
2023-06-16T23:24:38.588Z,12.30
2023-06-16T23:27:06.929Z,12.80
2023-06-16T23:29:35.291Z,13.50
2023-06-16T23:32:03.286Z,14.20
2023-06-16T23:34:32.229Z,13.30
2023-06-16T23:37:00.858Z,12.40
2023-06-16T23:39:28.780Z,13.40
2023-06-16T23:41:56.600Z,12.50
2023-06-16T23:44:24.411Z,12.70
2023-06-16T23:46:52.410Z,13.50
2023-06-16T23:49:20.157Z,12.40
2023-06-16T23:51:48.104Z,12.30
2023-06-16T23:54:17.911Z,11.60
2023-06-16T23:56:45.687Z,12.20
2023-06-16T23:59:13.814Z,11.10
